sensor_id;sensor_type;location;lat;lon;timestamp;P1;durP1;ratioP1;P2;durP2;ratioP2
54679;SDS011;40578;53.178;5.846;2023-02-25T00:01:10;23.27;;;3.63;;
54679;SDS011;40578;53.178;5.846;2023-02-25T00:03:38;28.10;;;3.60;;
54679;SDS011;40578;53.178;5.846;2023-02-25T00:08:31;24.30;;;4.10;;
54679;SDS011;40578;53.178;5.846;2023-02-25T00:11:00;24.30;;;4.40;;
54679;SDS011;40578;53.178;5.846;2023-02-25T00:13:27;22.55;;;3.90;;
54679;SDS011;40578;53.178;5.846;2023-02-25T00:15:54;19.58;;;2.92;;
54679;SDS011;40578;53.178;5.846;2023-02-25T00:18:22;26.75;;;4.03;;
54679;SDS011;40578;53.178;5.846;2023-02-25T00:23:15;31.80;;;4.03;;
54679;SDS011;40578;53.178;5.846;2023-02-25T00:25:40;18.70;;;3.57;;
54679;SDS011;40578;53.178;5.846;2023-02-25T00:28:06;23.33;;;4.53;;
54679;SDS011;40578;53.178;5.846;2023-02-25T00:30:32;24.40;;;4.10;;
54679;SDS011;40578;53.178;5.846;2023-02-25T00:32:59;19.10;;;2.85;;
54679;SDS011;40578;53.178;5.846;2023-02-25T00:35:25;14.55;;;2.60;;
54679;SDS011;40578;53.178;5.846;2023-02-25T00:37:51;15.50;;;2.50;;
54679;SDS011;40578;53.178;5.846;2023-02-25T00:40:17;14.60;;;3.28;;
54679;SDS011;40578;53.178;5.846;2023-02-25T00:42:43;15.47;;;3.17;;
54679;SDS011;40578;53.178;5.846;2023-02-25T00:45:09;14.03;;;3.20;;
54679;SDS011;40578;53.178;5.846;2023-02-25T00:50:01;23.33;;;4.10;;
54679;SDS011;40578;53.178;5.846;2023-02-25T00:52:28;19.33;;;3.33;;
54679;SDS011;40578;53.178;5.846;2023-02-25T00:54:53;16.33;;;2.70;;
54679;SDS011;40578;53.178;5.846;2023-02-25T00:57:19;18.50;;;2.93;;
54679;SDS011;40578;53.178;5.846;2023-02-25T00:59:45;17.73;;;3.60;;
54679;SDS011;40578;53.178;5.846;2023-02-25T01:02:10;23.47;;;3.63;;
54679;SDS011;40578;53.178;5.846;2023-02-25T01:04:36;20.00;;;3.67;;
54679;SDS011;40578;53.178;5.846;2023-02-25T01:07:01;17.53;;;4.03;;
54679;SDS011;40578;53.178;5.846;2023-02-25T01:09:27;20.00;;;3.20;;
54679;SDS011;40578;53.178;5.846;2023-02-25T01:11:53;19.90;;;4.27;;
54679;SDS011;40578;53.178;5.846;2023-02-25T01:14:20;23.63;;;4.37;;
54679;SDS011;40578;53.178;5.846;2023-02-25T01:16:48;18.70;;;3.88;;
54679;SDS011;40578;53.178;5.846;2023-02-25T01:19:16;23.95;;;3.95;;
54679;SDS011;40578;53.178;5.846;2023-02-25T01:21:45;25.13;;;3.67;;
54679;SDS011;40578;53.178;5.846;2023-02-25T01:26:42;20.00;;;3.10;;
54679;SDS011;40578;53.178;5.846;2023-02-25T01:29:10;24.48;;;4.07;;
54679;SDS011;40578;53.178;5.846;2023-02-25T01:32:05;18.40;;;3.60;;
54679;SDS011;40578;53.178;5.846;2023-02-25T01:34:37;20.00;;;3.33;;
54679;SDS011;40578;53.178;5.846;2023-02-25T01:37:04;16.52;;;3.08;;
54679;SDS011;40578;53.178;5.846;2023-02-25T01:41:57;17.73;;;3.30;;
54679;SDS011;40578;53.178;5.846;2023-02-25T01:47:02;18.45;;;3.55;;
54679;SDS011;40578;53.178;5.846;2023-02-25T01:49:42;23.42;;;3.70;;
54679;SDS011;40578;53.178;5.846;2023-02-25T01:52:11;19.20;;;2.80;;
54679;SDS011;40578;53.178;5.846;2023-02-25T01:54:41;18.02;;;3.38;;
54679;SDS011;40578;53.178;5.846;2023-02-25T01:57:09;18.27;;;3.17;;
54679;SDS011;40578;53.178;5.846;2023-02-25T01:59:37;17.35;;;3.72;;
54679;SDS011;40578;53.178;5.846;2023-02-25T02:02:06;21.98;;;3.47;;
54679;SDS011;40578;53.178;5.846;2023-02-25T02:04:33;21.85;;;3.70;;
54679;SDS011;40578;53.178;5.846;2023-02-25T02:07:01;19.52;;;3.53;;
54679;SDS011;40578;53.178;5.846;2023-02-25T02:09:28;21.98;;;3.00;;
54679;SDS011;40578;53.178;5.846;2023-02-25T02:11:56;30.80;;;4.13;;
54679;SDS011;40578;53.178;5.846;2023-02-25T02:14:45;20.42;;;3.33;;
54679;SDS011;40578;53.178;5.846;2023-02-25T02:20:05;23.10;;;3.75;;
54679;SDS011;40578;53.178;5.846;2023-02-25T02:36:28;15.20;;;3.65;;
54679;SDS011;40578;53.178;5.846;2023-02-25T02:41:55;13.88;;;2.25;;
54679;SDS011;40578;53.178;5.846;2023-02-25T02:47:07;12.05;;;2.28;;
54679;SDS011;40578;53.178;5.846;2023-02-25T02:49:45;20.33;;;2.72;;
54679;SDS011;40578;53.178;5.846;2023-02-25T02:52:21;15.43;;;2.40;;
54679;SDS011;40578;53.178;5.846;2023-02-25T02:54:52;12.70;;;2.58;;
54679;SDS011;40578;53.178;5.846;2023-02-25T02:57:22;17.17;;;2.20;;
54679;SDS011;40578;53.178;5.846;2023-02-25T02:59:54;15.07;;;2.63;;
54679;SDS011;40578;53.178;5.846;2023-02-25T03:02:28;13.00;;;2.40;;
54679;SDS011;40578;53.178;5.846;2023-02-25T03:05:00;18.13;;;2.85;;
54679;SDS011;40578;53.178;5.846;2023-02-25T03:07:28;21.15;;;3.72;;
54679;SDS011;40578;53.178;5.846;2023-02-25T03:09:58;16.88;;;2.95;;
54679;SDS011;40578;53.178;5.846;2023-02-25T03:12:27;13.38;;;2.40;;
54679;SDS011;40578;53.178;5.846;2023-02-25T03:14:55;18.83;;;3.10;;
54679;SDS011;40578;53.178;5.846;2023-02-25T03:17:27;17.38;;;2.70;;
54679;SDS011;40578;53.178;5.846;2023-02-25T03:20:09;14.57;;;3.45;;
54679;SDS011;40578;53.178;5.846;2023-02-25T03:23:03;21.58;;;3.30;;
54679;SDS011;40578;53.178;5.846;2023-02-25T03:25:40;15.15;;;3.20;;
54679;SDS011;40578;53.178;5.846;2023-02-25T03:31:05;17.75;;;2.90;;
54679;SDS011;40578;53.178;5.846;2023-02-25T03:33:44;20.40;;;3.22;;
54679;SDS011;40578;53.178;5.846;2023-02-25T03:36:18;15.48;;;2.92;;
54679;SDS011;40578;53.178;5.846;2023-02-25T03:38:58;19.00;;;3.72;;
54679;SDS011;40578;53.178;5.846;2023-02-25T03:41:33;19.40;;;2.83;;
54679;SDS011;40578;53.178;5.846;2023-02-25T03:44:03;13.00;;;2.38;;
54679;SDS011;40578;53.178;5.846;2023-02-25T03:46:35;10.55;;;2.08;;
54679;SDS011;40578;53.178;5.846;2023-02-25T03:49:03;13.75;;;2.30;;
54679;SDS011;40578;53.178;5.846;2023-02-25T03:51:33;10.45;;;2.85;;
54679;SDS011;40578;53.178;5.846;2023-02-25T03:54:02;15.18;;;2.63;;
54679;SDS011;40578;53.178;5.846;2023-02-25T03:56:28;14.63;;;2.65;;
54679;SDS011;40578;53.178;5.846;2023-02-25T03:58:54;13.95;;;2.45;;
54679;SDS011;40578;53.178;5.846;2023-02-25T04:01:21;10.73;;;2.13;;
54679;SDS011;40578;53.178;5.846;2023-02-25T04:03:52;9.27;;;1.77;;
54679;SDS011;40578;53.178;5.846;2023-02-25T04:06:20;7.70;;;1.10;;
54679;SDS011;40578;53.178;5.846;2023-02-25T04:08:46;14.60;;;2.40;;
54679;SDS011;40578;53.178;5.846;2023-02-25T04:11:13;11.75;;;2.63;;
54679;SDS011;40578;53.178;5.846;2023-02-25T04:13:38;12.63;;;1.60;;
54679;SDS011;40578;53.178;5.846;2023-02-25T04:16:04;11.63;;;2.00;;
54679;SDS011;40578;53.178;5.846;2023-02-25T04:18:32;13.82;;;1.85;;
54679;SDS011;40578;53.178;5.846;2023-02-25T04:20:58;9.75;;;1.90;;
54679;SDS011;40578;53.178;5.846;2023-02-25T04:23:24;14.05;;;2.60;;
54679;SDS011;40578;53.178;5.846;2023-02-25T04:25:50;13.07;;;2.43;;
54679;SDS011;40578;53.178;5.846;2023-02-25T04:28:16;9.65;;;1.92;;
54679;SDS011;40578;53.178;5.846;2023-02-25T04:30:42;15.50;;;3.30;;
54679;SDS011;40578;53.178;5.846;2023-02-25T04:33:09;10.27;;;2.00;;
54679;SDS011;40578;53.178;5.846;2023-02-25T04:35:35;12.00;;;2.28;;
54679;SDS011;40578;53.178;5.846;2023-02-25T04:38:00;8.97;;;1.90;;
54679;SDS011;40578;53.178;5.846;2023-02-25T04:40:26;10.97;;;2.30;;
54679;SDS011;40578;53.178;5.846;2023-02-25T04:42:52;8.87;;;1.80;;
54679;SDS011;40578;53.178;5.846;2023-02-25T04:45:18;16.00;;;2.33;;
54679;SDS011;40578;53.178;5.846;2023-02-25T04:47:49;10.57;;;1.70;;
54679;SDS011;40578;53.178;5.846;2023-02-25T04:50:19;13.98;;;2.25;;
54679;SDS011;40578;53.178;5.846;2023-02-25T04:52:45;12.83;;;2.13;;
54679;SDS011;40578;53.178;5.846;2023-02-25T04:55:11;11.65;;;1.83;;
54679;SDS011;40578;53.178;5.846;2023-02-25T04:57:37;8.73;;;1.70;;
54679;SDS011;40578;53.178;5.846;2023-02-25T05:00:08;9.32;;;1.80;;
54679;SDS011;40578;53.178;5.846;2023-02-25T05:02:45;13.77;;;2.00;;
54679;SDS011;40578;53.178;5.846;2023-02-25T05:05:15;10.10;;;1.90;;
54679;SDS011;40578;53.178;5.846;2023-02-25T05:07:41;11.90;;;1.83;;
54679;SDS011;40578;53.178;5.846;2023-02-25T05:10:08;18.55;;;2.60;;
54679;SDS011;40578;53.178;5.846;2023-02-25T05:12:35;10.35;;;2.22;;
54679;SDS011;40578;53.178;5.846;2023-02-25T05:15:01;8.90;;;2.33;;
54679;SDS011;40578;53.178;5.846;2023-02-25T05:17:29;19.23;;;2.38;;
54679;SDS011;40578;53.178;5.846;2023-02-25T05:19:58;14.70;;;2.47;;
54679;SDS011;40578;53.178;5.846;2023-02-25T05:22:24;18.77;;;2.60;;
54679;SDS011;40578;53.178;5.846;2023-02-25T05:24:51;16.77;;;2.80;;
54679;SDS011;40578;53.178;5.846;2023-02-25T05:27:17;12.82;;;2.13;;
54679;SDS011;40578;53.178;5.846;2023-02-25T05:29:44;10.30;;;2.13;;
54679;SDS011;40578;53.178;5.846;2023-02-25T05:32:09;49.20;;;2.67;;
54679;SDS011;40578;53.178;5.846;2023-02-25T05:34:35;12.25;;;2.42;;
54679;SDS011;40578;53.178;5.846;2023-02-25T05:37:01;11.27;;;2.13;;
54679;SDS011;40578;53.178;5.846;2023-02-25T05:39:27;11.50;;;2.43;;
54679;SDS011;40578;53.178;5.846;2023-02-25T05:41:52;9.63;;;2.03;;
54679;SDS011;40578;53.178;5.846;2023-02-25T05:44:18;11.77;;;1.92;;
54679;SDS011;40578;53.178;5.846;2023-02-25T05:46:44;9.00;;;1.30;;
54679;SDS011;40578;53.178;5.846;2023-02-25T05:49:10;8.20;;;1.23;;
54679;SDS011;40578;53.178;5.846;2023-02-25T05:51:36;6.80;;;1.07;;
54679;SDS011;40578;53.178;5.846;2023-02-25T05:54:01;4.03;;;1.00;;
54679;SDS011;40578;53.178;5.846;2023-02-25T05:56:27;5.43;;;1.10;;
54679;SDS011;40578;53.178;5.846;2023-02-25T05:58:53;3.87;;;0.80;;
54679;SDS011;40578;53.178;5.846;2023-02-25T06:01:22;7.80;;;1.55;;
54679;SDS011;40578;53.178;5.846;2023-02-25T06:03:51;7.10;;;1.20;;
54679;SDS011;40578;53.178;5.846;2023-02-25T06:06:18;6.17;;;1.00;;
54679;SDS011;40578;53.178;5.846;2023-02-25T06:08:48;7.03;;;1.23;;
54679;SDS011;40578;53.178;5.846;2023-02-25T06:11:18;7.63;;;1.48;;
54679;SDS011;40578;53.178;5.846;2023-02-25T06:13:49;8.13;;;1.23;;
54679;SDS011;40578;53.178;5.846;2023-02-25T06:16:16;7.80;;;1.23;;
54679;SDS011;40578;53.178;5.846;2023-02-25T06:18:42;4.53;;;1.00;;
54679;SDS011;40578;53.178;5.846;2023-02-25T06:21:09;4.70;;;0.95;;
54679;SDS011;40578;53.178;5.846;2023-02-25T06:23:37;7.35;;;1.80;;
54679;SDS011;40578;53.178;5.846;2023-02-25T06:26:04;11.27;;;1.55;;
54679;SDS011;40578;53.178;5.846;2023-02-25T06:28:32;6.80;;;1.25;;
54679;SDS011;40578;53.178;5.846;2023-02-25T06:30:58;6.20;;;1.20;;
54679;SDS011;40578;53.178;5.846;2023-02-25T06:33:24;8.90;;;1.10;;
54679;SDS011;40578;53.178;5.846;2023-02-25T06:35:51;8.60;;;1.30;;
54679;SDS011;40578;53.178;5.846;2023-02-25T06:38:17;4.35;;;0.90;;
54679;SDS011;40578;53.178;5.846;2023-02-25T06:40:44;4.25;;;0.88;;
54679;SDS011;40578;53.178;5.846;2023-02-25T06:43:09;11.77;;;1.33;;
54679;SDS011;40578;53.178;5.846;2023-02-25T06:45:37;7.60;;;1.33;;
54679;SDS011;40578;53.178;5.846;2023-02-25T06:48:03;11.50;;;1.48;;
54679;SDS011;40578;53.178;5.846;2023-02-25T06:50:30;9.90;;;1.83;;
54679;SDS011;40578;53.178;5.846;2023-02-25T06:52:57;7.30;;;1.75;;
54679;SDS011;40578;53.178;5.846;2023-02-25T06:55:23;7.63;;;1.48;;
54679;SDS011;40578;53.178;5.846;2023-02-25T06:57:49;10.07;;;1.83;;
54679;SDS011;40578;53.178;5.846;2023-02-25T07:00:14;11.80;;;1.67;;
54679;SDS011;40578;53.178;5.846;2023-02-25T07:02:40;11.05;;;2.15;;
54679;SDS011;40578;53.178;5.846;2023-02-25T07:05:06;14.70;;;2.53;;
54679;SDS011;40578;53.178;5.846;2023-02-25T07:07:32;10.50;;;1.70;;
54679;SDS011;40578;53.178;5.846;2023-02-25T07:09:57;9.13;;;1.63;;
54679;SDS011;40578;53.178;5.846;2023-02-25T07:12:23;11.03;;;1.90;;
54679;SDS011;40578;53.178;5.846;2023-02-25T07:14:49;11.23;;;1.77;;
54679;SDS011;40578;53.178;5.846;2023-02-25T07:17:14;6.50;;;1.17;;
54679;SDS011;40578;53.178;5.846;2023-02-25T07:19:40;7.07;;;1.40;;
54679;SDS011;40578;53.178;5.846;2023-02-25T07:22:06;8.35;;;1.10;;
54679;SDS011;40578;53.178;5.846;2023-02-25T07:24:38;4.97;;;0.90;;
54679;SDS011;40578;53.178;5.846;2023-02-25T07:27:03;6.50;;;1.17;;
54679;SDS011;40578;53.178;5.846;2023-02-25T07:29:29;4.13;;;0.80;;
54679;SDS011;40578;53.178;5.846;2023-02-25T07:31:55;8.88;;;0.90;;
54679;SDS011;40578;53.178;5.846;2023-02-25T07:34:21;4.43;;;0.87;;
54679;SDS011;40578;53.178;5.846;2023-02-25T07:36:46;5.47;;;1.10;;
54679;SDS011;40578;53.178;5.846;2023-02-25T07:39:12;8.50;;;1.40;;
54679;SDS011;40578;53.178;5.846;2023-02-25T07:41:38;5.07;;;1.47;;
54679;SDS011;40578;53.178;5.846;2023-02-25T07:44:04;7.03;;;1.60;;
54679;SDS011;40578;53.178;5.846;2023-02-25T07:48:57;7.25;;;1.50;;
54679;SDS011;40578;53.178;5.846;2023-02-25T07:51:23;6.77;;;1.57;;
54679;SDS011;40578;53.178;5.846;2023-02-25T07:56:17;7.43;;;1.55;;
54679;SDS011;40578;53.178;5.846;2023-02-25T07:58:43;6.05;;;1.50;;
54679;SDS011;40578;53.178;5.846;2023-02-25T08:01:26;6.10;;;1.48;;
54679;SDS011;40578;53.178;5.846;2023-02-25T08:03:56;6.85;;;1.58;;
54679;SDS011;40578;53.178;5.846;2023-02-25T08:06:24;6.47;;;1.27;;
54679;SDS011;40578;53.178;5.846;2023-02-25T08:08:50;8.80;;;1.40;;
54679;SDS011;40578;53.178;5.846;2023-02-25T08:11:16;7.05;;;1.42;;
54679;SDS011;40578;53.178;5.846;2023-02-25T08:13:45;10.18;;;1.88;;
54679;SDS011;40578;53.178;5.846;2023-02-25T08:16:12;10.23;;;1.45;;
54679;SDS011;40578;53.178;5.846;2023-02-25T08:18:39;11.05;;;1.50;;
54679;SDS011;40578;53.178;5.846;2023-02-25T08:21:09;7.60;;;1.67;;
54679;SDS011;40578;53.178;5.846;2023-02-25T08:23:36;11.43;;;1.67;;
54679;SDS011;40578;53.178;5.846;2023-02-25T08:26:02;5.45;;;1.52;;
54679;SDS011;40578;53.178;5.846;2023-02-25T08:28:28;10.10;;;2.13;;
54679;SDS011;40578;53.178;5.846;2023-02-25T08:30:57;7.15;;;1.40;;
54679;SDS011;40578;53.178;5.846;2023-02-25T08:35:50;13.52;;;1.98;;
54679;SDS011;40578;53.178;5.846;2023-02-25T08:38:16;11.00;;;1.58;;
54679;SDS011;40578;53.178;5.846;2023-02-25T08:40:42;6.72;;;1.20;;
54679;SDS011;40578;53.178;5.846;2023-02-25T08:43:08;6.63;;;1.10;;
54679;SDS011;40578;53.178;5.846;2023-02-25T08:45:35;9.20;;;1.52;;
54679;SDS011;40578;53.178;5.846;2023-02-25T08:48:02;8.10;;;1.58;;
54679;SDS011;40578;53.178;5.846;2023-02-25T08:50:28;9.67;;;1.70;;
54679;SDS011;40578;53.178;5.846;2023-02-25T08:52:54;8.20;;;1.47;;
54679;SDS011;40578;53.178;5.846;2023-02-25T08:55:20;9.77;;;1.30;;
54679;SDS011;40578;53.178;5.846;2023-02-25T08:57:49;7.80;;;1.60;;
54679;SDS011;40578;53.178;5.846;2023-02-25T09:02:41;14.02;;;1.85;;
54679;SDS011;40578;53.178;5.846;2023-02-25T09:05:08;6.20;;;1.50;;
54679;SDS011;40578;53.178;5.846;2023-02-25T09:07:34;9.70;;;1.87;;
54679;SDS011;40578;53.178;5.846;2023-02-25T09:10:00;8.13;;;1.88;;
54679;SDS011;40578;53.178;5.846;2023-02-25T09:12:29;8.60;;;1.50;;
54679;SDS011;40578;53.178;5.846;2023-02-25T09:15:13;6.53;;;1.70;;
54679;SDS011;40578;53.178;5.846;2023-02-25T09:17:39;7.07;;;1.40;;
54679;SDS011;40578;53.178;5.846;2023-02-25T09:20:05;9.40;;;1.60;;
54679;SDS011;40578;53.178;5.846;2023-02-25T09:22:35;5.60;;;1.33;;
54679;SDS011;40578;53.178;5.846;2023-02-25T09:25:03;9.27;;;1.27;;
54679;SDS011;40578;53.178;5.846;2023-02-25T09:29:56;8.02;;;1.48;;
54679;SDS011;40578;53.178;5.846;2023-02-25T09:32:21;9.70;;;1.98;;
54679;SDS011;40578;53.178;5.846;2023-02-25T09:34:47;11.20;;;2.20;;
54679;SDS011;40578;53.178;5.846;2023-02-25T09:37:14;7.13;;;1.50;;
54679;SDS011;40578;53.178;5.846;2023-02-25T09:42:10;8.48;;;1.50;;
54679;SDS011;40578;53.178;5.846;2023-02-25T09:44:49;10.30;;;2.20;;
54679;SDS011;40578;53.178;5.846;2023-02-25T09:47:21;10.63;;;1.83;;
54679;SDS011;40578;53.178;5.846;2023-02-25T09:58:06;12.13;;;1.67;;
54679;SDS011;40578;53.178;5.846;2023-02-25T10:00:44;13.43;;;2.40;;
54679;SDS011;40578;53.178;5.846;2023-02-25T10:03:21;10.07;;;1.70;;
54679;SDS011;40578;53.178;5.846;2023-02-25T10:06:01;13.75;;;3.20;;
54679;SDS011;40578;53.178;5.846;2023-02-25T10:08:42;12.73;;;2.20;;
54679;SDS011;40578;53.178;5.846;2023-02-25T10:11:43;9.30;;;2.03;;
54679;SDS011;40578;53.178;5.846;2023-02-25T10:19:59;10.05;;;1.75;;
54679;SDS011;40578;53.178;5.846;2023-02-25T10:25:10;7.07;;;1.48;;
54679;SDS011;40578;53.178;5.846;2023-02-25T10:27:45;7.72;;;1.45;;
54679;SDS011;40578;53.178;5.846;2023-02-25T10:30:24;6.30;;;1.50;;
54679;SDS011;40578;53.178;5.846;2023-02-25T10:32:55;7.50;;;1.48;;
54679;SDS011;40578;53.178;5.846;2023-02-25T10:35:23;5.80;;;1.60;;
54679;SDS011;40578;53.178;5.846;2023-02-25T10:37:51;6.30;;;1.23;;
54679;SDS011;40578;53.178;5.846;2023-02-25T10:40:18;8.60;;;1.50;;
54679;SDS011;40578;53.178;5.846;2023-02-25T10:42:47;8.30;;;1.42;;
54679;SDS011;40578;53.178;5.846;2023-02-25T10:45:19;5.13;;;1.58;;
54679;SDS011;40578;53.178;5.846;2023-02-25T10:48:03;10.55;;;1.45;;
54679;SDS011;40578;53.178;5.846;2023-02-25T10:50:31;7.53;;;1.88;;
54679;SDS011;40578;53.178;5.846;2023-02-25T10:52:58;6.67;;;1.63;;
54679;SDS011;40578;53.178;5.846;2023-02-25T11:00:57;4.38;;;1.30;;
54679;SDS011;40578;53.178;5.846;2023-02-25T11:03:51;6.80;;;1.70;;
54679;SDS011;40578;53.178;5.846;2023-02-25T11:06:23;4.68;;;1.50;;
54679;SDS011;40578;53.178;5.846;2023-02-25T11:08:50;4.65;;;1.30;;
54679;SDS011;40578;53.178;5.846;2023-02-25T11:11:26;7.82;;;2.00;;
54679;SDS011;40578;53.178;5.846;2023-02-25T11:16:23;5.05;;;1.63;;
54679;SDS011;40578;53.178;5.846;2023-02-25T11:18:54;7.45;;;2.28;;
54679;SDS011;40578;53.178;5.846;2023-02-25T11:21:28;6.95;;;1.70;;
54679;SDS011;40578;53.178;5.846;2023-02-25T11:23:57;9.57;;;1.90;;
54679;SDS011;40578;53.178;5.846;2023-02-25T11:26:29;9.25;;;1.85;;
54679;SDS011;40578;53.178;5.846;2023-02-25T11:29:07;11.38;;;1.67;;
54679;SDS011;40578;53.178;5.846;2023-02-25T11:31:38;8.77;;;1.85;;
54679;SDS011;40578;53.178;5.846;2023-02-25T11:34:43;16.95;;;2.33;;
54679;SDS011;40578;53.178;5.846;2023-02-25T11:40:29;8.25;;;1.65;;
54679;SDS011;40578;53.178;5.846;2023-02-25T11:45:26;8.77;;;1.75;;
54679;SDS011;40578;53.178;5.846;2023-02-25T11:47:55;8.98;;;1.80;;
54679;SDS011;40578;53.178;5.846;2023-02-25T11:58:19;7.63;;;2.10;;
54679;SDS011;40578;53.178;5.846;2023-02-25T12:00:53;11.88;;;2.95;;
54679;SDS011;40578;53.178;5.846;2023-02-25T12:04:12;9.93;;;2.13;;
54679;SDS011;40578;53.178;5.846;2023-02-25T12:15:24;8.90;;;1.60;;
54679;SDS011;40578;53.178;5.846;2023-02-25T12:23:53;6.97;;;1.33;;
54679;SDS011;40578;53.178;5.846;2023-02-25T12:26:54;6.18;;;1.13;;
54679;SDS011;40578;53.178;5.846;2023-02-25T12:29:57;11.43;;;1.83;;
54679;SDS011;40578;53.178;5.846;2023-02-25T12:37:50;9.80;;;1.92;;
54679;SDS011;40578;53.178;5.846;2023-02-25T12:43:31;6.72;;;3.05;;
54679;SDS011;40578;53.178;5.846;2023-02-25T12:54:31;6.05;;;1.60;;
54679;SDS011;40578;53.178;5.846;2023-02-25T12:59:49;8.02;;;1.48;;
54679;SDS011;40578;53.178;5.846;2023-02-25T13:08:38;13.18;;;1.52;;
54679;SDS011;40578;53.178;5.846;2023-02-25T13:11:29;7.05;;;1.58;;
54679;SDS011;40578;53.178;5.846;2023-02-25T13:25:52;9.90;;;1.70;;
54679;SDS011;40578;53.178;5.846;2023-02-25T13:31:33;8.02;;;2.35;;
54679;SDS011;40578;53.178;5.846;2023-02-25T13:39:43;8.15;;;1.80;;
54679;SDS011;40578;53.178;5.846;2023-02-25T13:45:24;10.52;;;1.95;;
54679;SDS011;40578;53.178;5.846;2023-02-25T13:48:07;8.38;;;2.17;;
54679;SDS011;40578;53.178;5.846;2023-02-25T13:51:52;8.73;;;1.58;;
54679;SDS011;40578;53.178;5.846;2023-02-25T14:28:30;6.82;;;1.70;;
54679;SDS011;40578;53.178;5.846;2023-02-25T14:42:44;6.15;;;1.52;;
54679;SDS011;40578;53.178;5.846;2023-02-25T14:47:40;8.88;;;1.42;;
54679;SDS011;40578;53.178;5.846;2023-02-25T14:52:49;8.35;;;1.67;;
54679;SDS011;40578;53.178;5.846;2023-02-25T14:55:32;9.65;;;1.58;;
54679;SDS011;40578;53.178;5.846;2023-02-25T15:21:36;6.10;;;1.50;;
54679;SDS011;40578;53.178;5.846;2023-02-25T15:24:03;4.90;;;1.33;;
54679;SDS011;40578;53.178;5.846;2023-02-25T15:29:17;8.02;;;1.35;;
54679;SDS011;40578;53.178;5.846;2023-02-25T15:32:12;3.97;;;1.38;;
54679;SDS011;40578;53.178;5.846;2023-02-25T15:37:26;5.30;;;1.23;;
54679;SDS011;40578;53.178;5.846;2023-02-25T15:42:44;6.72;;;1.63;;
54679;SDS011;40578;53.178;5.846;2023-02-25T16:00:54;8.60;;;1.17;;
54679;SDS011;40578;53.178;5.846;2023-02-25T16:14:02;6.85;;;1.38;;
54679;SDS011;40578;53.178;5.846;2023-02-25T16:16:31;7.10;;;1.58;;
54679;SDS011;40578;53.178;5.846;2023-02-25T16:18:59;7.72;;;1.75;;
54679;SDS011;40578;53.178;5.846;2023-02-25T16:21:30;5.80;;;1.33;;
54679;SDS011;40578;53.178;5.846;2023-02-25T16:24:08;5.57;;;1.42;;
54679;SDS011;40578;53.178;5.846;2023-02-25T16:26:41;7.57;;;1.30;;
54679;SDS011;40578;53.178;5.846;2023-02-25T16:37:54;5.40;;;1.48;;
54679;SDS011;40578;53.178;5.846;2023-02-25T16:40:41;8.70;;;1.58;;
54679;SDS011;40578;53.178;5.846;2023-02-25T16:45:42;6.63;;;1.95;;
54679;SDS011;40578;53.178;5.846;2023-02-25T16:48:17;9.30;;;1.70;;
54679;SDS011;40578;53.178;5.846;2023-02-25T16:50:50;10.73;;;2.00;;
54679;SDS011;40578;53.178;5.846;2023-02-25T16:53:18;6.53;;;1.50;;
54679;SDS011;40578;53.178;5.846;2023-02-25T16:55:46;6.65;;;1.67;;
54679;SDS011;40578;53.178;5.846;2023-02-25T17:00:53;8.65;;;1.48;;
54679;SDS011;40578;53.178;5.846;2023-02-25T17:03:20;9.70;;;1.85;;
54679;SDS011;40578;53.178;5.846;2023-02-25T17:05:57;14.45;;;1.80;;
54679;SDS011;40578;53.178;5.846;2023-02-25T17:10:52;5.85;;;1.63;;
54679;SDS011;40578;53.178;5.846;2023-02-25T17:13:30;10.48;;;1.73;;
54679;SDS011;40578;53.178;5.846;2023-02-25T17:15:59;6.95;;;1.77;;
54679;SDS011;40578;53.178;5.846;2023-02-25T17:18:47;6.32;;;1.80;;
54679;SDS011;40578;53.178;5.846;2023-02-25T17:21:25;7.05;;;1.50;;
54679;SDS011;40578;53.178;5.846;2023-02-25T17:23:53;8.55;;;1.50;;
54679;SDS011;40578;53.178;5.846;2023-02-25T17:26:24;7.72;;;2.10;;
54679;SDS011;40578;53.178;5.846;2023-02-25T17:28:51;9.27;;;2.03;;
54679;SDS011;40578;53.178;5.846;2023-02-25T17:31:19;14.70;;;2.40;;
54679;SDS011;40578;53.178;5.846;2023-02-25T17:36:20;12.48;;;2.17;;
54679;SDS011;40578;53.178;5.846;2023-02-25T17:38:49;11.02;;;1.70;;
54679;SDS011;40578;53.178;5.846;2023-02-25T17:41:24;5.53;;;1.65;;
54679;SDS011;40578;53.178;5.846;2023-02-25T17:43:50;8.73;;;1.70;;
54679;SDS011;40578;53.178;5.846;2023-02-25T17:48:54;8.38;;;1.20;;
54679;SDS011;40578;53.178;5.846;2023-02-25T17:51:28;4.40;;;1.08;;
54679;SDS011;40578;53.178;5.846;2023-02-25T17:54:04;6.97;;;1.70;;
54679;SDS011;40578;53.178;5.846;2023-02-25T17:56:33;7.32;;;1.23;;
54679;SDS011;40578;53.178;5.846;2023-02-25T17:59:04;4.53;;;1.00;;
54679;SDS011;40578;53.178;5.846;2023-02-25T18:01:45;5.45;;;1.10;;
54679;SDS011;40578;53.178;5.846;2023-02-25T18:04:21;5.10;;;1.00;;
54679;SDS011;40578;53.178;5.846;2023-02-25T18:06:51;4.93;;;1.50;;
54679;SDS011;40578;53.178;5.846;2023-02-25T18:11:59;3.72;;;0.82;;
54679;SDS011;40578;53.178;5.846;2023-02-25T18:14:31;5.90;;;1.10;;
54679;SDS011;40578;53.178;5.846;2023-02-25T18:17:12;5.43;;;1.50;;
54679;SDS011;40578;53.178;5.846;2023-02-25T18:19:46;7.10;;;0.90;;
54679;SDS011;40578;53.178;5.846;2023-02-25T18:22:26;5.15;;;1.00;;
54679;SDS011;40578;53.178;5.846;2023-02-25T18:24:59;4.82;;;0.80;;
54679;SDS011;40578;53.178;5.846;2023-02-25T18:27:32;3.47;;;0.88;;
54679;SDS011;40578;53.178;5.846;2023-02-25T18:32:36;5.38;;;1.25;;
54679;SDS011;40578;53.178;5.846;2023-02-25T18:35:03;3.30;;;1.60;;
54679;SDS011;40578;53.178;5.846;2023-02-25T18:37:30;5.00;;;1.50;;
54679;SDS011;40578;53.178;5.846;2023-02-25T18:39:57;4.72;;;1.40;;
54679;SDS011;40578;53.178;5.846;2023-02-25T18:42:23;4.10;;;1.23;;
54679;SDS011;40578;53.178;5.846;2023-02-25T18:44:49;9.47;;;1.20;;
54679;SDS011;40578;53.178;5.846;2023-02-25T18:47:15;5.93;;;1.30;;
54679;SDS011;40578;53.178;5.846;2023-02-25T18:49:41;8.47;;;1.43;;
54679;SDS011;40578;53.178;5.846;2023-02-25T18:52:21;4.95;;;1.10;;
54679;SDS011;40578;53.178;5.846;2023-02-25T18:54:49;5.93;;;1.40;;
54679;SDS011;40578;53.178;5.846;2023-02-25T18:57:17;6.00;;;1.20;;
54679;SDS011;40578;53.178;5.846;2023-02-25T18:59:48;4.55;;;1.35;;
54679;SDS011;40578;53.178;5.846;2023-02-25T19:02:22;5.97;;;1.45;;
54679;SDS011;40578;53.178;5.846;2023-02-25T19:04:54;2.78;;;1.00;;
54679;SDS011;40578;53.178;5.846;2023-02-25T19:07:22;7.10;;;1.70;;
54679;SDS011;40578;53.178;5.846;2023-02-25T19:09:49;5.72;;;1.42;;
54679;SDS011;40578;53.178;5.846;2023-02-25T19:12:15;4.82;;;1.73;;
54679;SDS011;40578;53.178;5.846;2023-02-25T19:14:42;6.57;;;1.80;;
54679;SDS011;40578;53.178;5.846;2023-02-25T19:17:13;4.45;;;1.20;;
54679;SDS011;40578;53.178;5.846;2023-02-25T19:19:40;3.50;;;1.77;;
54679;SDS011;40578;53.178;5.846;2023-02-25T19:22:10;5.10;;;1.95;;
54679;SDS011;40578;53.178;5.846;2023-02-25T19:24:38;3.80;;;1.25;;
54679;SDS011;40578;53.178;5.846;2023-02-25T19:27:04;4.15;;;1.20;;
54679;SDS011;40578;53.178;5.846;2023-02-25T19:29:30;6.23;;;1.03;;
54679;SDS011;40578;53.178;5.846;2023-02-25T19:31:55;4.53;;;1.17;;
54679;SDS011;40578;53.178;5.846;2023-02-25T19:34:21;3.37;;;1.07;;
54679;SDS011;40578;53.178;5.846;2023-02-25T19:36:48;6.65;;;1.10;;
54679;SDS011;40578;53.178;5.846;2023-02-25T19:39:15;2.27;;;0.93;;
54679;SDS011;40578;53.178;5.846;2023-02-25T19:41:41;4.95;;;1.42;;
54679;SDS011;40578;53.178;5.846;2023-02-25T19:44:07;5.33;;;1.20;;
54679;SDS011;40578;53.178;5.846;2023-02-25T19:46:33;5.90;;;1.25;;
54679;SDS011;40578;53.178;5.846;2023-02-25T19:48:58;6.43;;;1.50;;
54679;SDS011;40578;53.178;5.846;2023-02-25T19:51:24;2.90;;;0.90;;
54679;SDS011;40578;53.178;5.846;2023-02-25T19:53:50;4.73;;;1.30;;